sensor_id;sensor_type;location;lat;lon;timestamp;P1;durP1;ratioP1;P2;durP2;ratioP2
54005;SDS011;39919;38.160;-122.260;2022-07-03T00:01:42;5.65;;;1.13;;
54005;SDS011;39919;38.160;-122.260;2022-07-03T00:04:11;9.18;;;0.77;;
54005;SDS011;39919;38.160;-122.260;2022-07-03T00:06:40;2.38;;;0.90;;
54005;SDS011;39919;38.160;-122.260;2022-07-03T00:09:09;4.05;;;1.00;;
54005;SDS011;39919;38.160;-122.260;2022-07-03T00:11:40;6.32;;;1.00;;
54005;SDS011;39919;38.160;-122.260;2022-07-03T00:14:12;3.63;;;0.85;;
54005;SDS011;39919;38.160;-122.260;2022-07-03T00:16:44;4.88;;;1.15;;
54005;SDS011;39919;38.160;-122.260;2022-07-03T00:19:13;5.40;;;1.45;;
54005;SDS011;39919;38.160;-122.260;2022-07-03T00:21:44;4.72;;;1.50;;
54005;SDS011;39919;38.160;-122.260;2022-07-03T00:24:16;2.75;;;0.88;;
54005;SDS011;39919;38.160;-122.260;2022-07-03T00:26:52;7.22;;;1.45;;
54005;SDS011;39919;38.160;-122.260;2022-07-03T00:29:23;8.73;;;1.92;;
54005;SDS011;39919;38.160;-122.260;2022-07-03T00:31:59;7.43;;;1.30;;
54005;SDS011;39919;38.160;-122.260;2022-07-03T00:34:29;5.47;;;1.15;;
54005;SDS011;39919;38.160;-122.260;2022-07-03T00:36:59;6.93;;;1.55;;
54005;SDS011;39919;38.160;-122.260;2022-07-03T00:39:29;9.32;;;2.08;;
54005;SDS011;39919;38.160;-122.260;2022-07-03T00:41:59;4.28;;;0.85;;
54005;SDS011;39919;38.160;-122.260;2022-07-03T00:44:30;5.60;;;1.05;;
54005;SDS011;39919;38.160;-122.260;2022-07-03T00:47:04;3.65;;;1.00;;
54005;SDS011;39919;38.160;-122.260;2022-07-03T00:49:34;5.47;;;0.98;;
54005;SDS011;39919;38.160;-122.260;2022-07-03T00:52:06;3.95;;;1.20;;
54005;SDS011;39919;38.160;-122.260;2022-07-03T00:54:42;2.75;;;0.70;;
54005;SDS011;39919;38.160;-122.260;2022-07-03T00:57:13;1.80;;;0.77;;
54005;SDS011;39919;38.160;-122.260;2022-07-03T00:59:49;4.43;;;0.70;;
54005;SDS011;39919;38.160;-122.260;2022-07-03T01:02:29;3.97;;;0.68;;
54005;SDS011;39919;38.160;-122.260;2022-07-03T01:05:07;7.03;;;1.10;;
54005;SDS011;39919;38.160;-122.260;2022-07-03T01:07:46;12.02;;;1.33;;
54005;SDS011;39919;38.160;-122.260;2022-07-03T01:10:27;6.25;;;1.40;;
54005;SDS011;39919;38.160;-122.260;2022-07-03T01:13:00;6.57;;;1.23;;
54005;SDS011;39919;38.160;-122.260;2022-07-03T01:15:36;13.45;;;0.88;;
54005;SDS011;39919;38.160;-122.260;2022-07-03T01:18:17;8.10;;;1.45;;
54005;SDS011;39919;38.160;-122.260;2022-07-03T01:20:58;4.03;;;0.85;;
54005;SDS011;39919;38.160;-122.260;2022-07-03T01:23:29;6.53;;;1.15;;
54005;SDS011;39919;38.160;-122.260;2022-07-03T01:26:11;4.57;;;1.25;;
54005;SDS011;39919;38.160;-122.260;2022-07-03T01:28:40;6.85;;;1.20;;
54005;SDS011;39919;38.160;-122.260;2022-07-03T01:31:18;4.03;;;1.00;;
54005;SDS011;39919;38.160;-122.260;2022-07-03T01:33:50;5.38;;;1.23;;
54005;SDS011;39919;38.160;-122.260;2022-07-03T01:36:21;6.20;;;0.95;;
54005;SDS011;39919;38.160;-122.260;2022-07-03T01:38:52;7.25;;;1.58;;
54005;SDS011;39919;38.160;-122.260;2022-07-03T01:41:25;5.68;;;0.90;;
54005;SDS011;39919;38.160;-122.260;2022-07-03T01:43:59;5.25;;;1.23;;
54005;SDS011;39919;38.160;-122.260;2022-07-03T01:46:30;8.65;;;1.08;;
54005;SDS011;39919;38.160;-122.260;2022-07-03T01:49:00;4.75;;;1.10;;
54005;SDS011;39919;38.160;-122.260;2022-07-03T01:51:30;8.27;;;1.48;;
54005;SDS011;39919;38.160;-122.260;2022-07-03T01:54:02;6.25;;;1.70;;
54005;SDS011;39919;38.160;-122.260;2022-07-03T01:56:34;5.38;;;1.30;;
54005;SDS011;39919;38.160;-122.260;2022-07-03T01:59:03;9.57;;;1.50;;
54005;SDS011;39919;38.160;-122.260;2022-07-03T02:01:36;4.78;;;1.08;;
54005;SDS011;39919;38.160;-122.260;2022-07-03T02:04:12;6.15;;;1.83;;
54005;SDS011;39919;38.160;-122.260;2022-07-03T02:06:52;2.92;;;0.90;;
54005;SDS011;39919;38.160;-122.260;2022-07-03T02:09:31;8.15;;;2.30;;
54005;SDS011;39919;38.160;-122.260;2022-07-03T02:12:11;10.50;;;1.80;;
54005;SDS011;39919;38.160;-122.260;2022-07-03T02:14:44;5.32;;;1.05;;
54005;SDS011;39919;38.160;-122.260;2022-07-03T02:17:21;6.38;;;1.38;;
54005;SDS011;39919;38.160;-122.260;2022-07-03T02:19:52;5.90;;;1.30;;
54005;SDS011;39919;38.160;-122.260;2022-07-03T02:22:25;3.45;;;1.10;;
54005;SDS011;39919;38.160;-122.260;2022-07-03T02:24:57;5.22;;;1.35;;
54005;SDS011;39919;38.160;-122.260;2022-07-03T02:27:37;7.13;;;1.08;;
54005;SDS011;39919;38.160;-122.260;2022-07-03T02:30:10;5.35;;;1.25;;
54005;SDS011;39919;38.160;-122.260;2022-07-03T02:32:43;3.67;;;1.02;;
54005;SDS011;39919;38.160;-122.260;2022-07-03T02:35:17;3.80;;;1.33;;
54005;SDS011;39919;38.160;-122.260;2022-07-03T02:37:52;4.70;;;1.00;;
54005;SDS011;39919;38.160;-122.260;2022-07-03T02:40:26;3.83;;;1.40;;
54005;SDS011;39919;38.160;-122.260;2022-07-03T02:43:12;5.25;;;1.40;;
54005;SDS011;39919;38.160;-122.260;2022-07-03T02:45:49;4.07;;;0.93;;
54005;SDS011;39919;38.160;-122.260;2022-07-03T02:48:24;3.83;;;1.17;;
54005;SDS011;39919;38.160;-122.260;2022-07-03T02:51:01;6.10;;;1.17;;
54005;SDS011;39919;38.160;-122.260;2022-07-03T02:53:35;7.90;;;1.55;;
54005;SDS011;39919;38.160;-122.260;2022-07-03T02:56:15;3.50;;;0.95;;
54005;SDS011;39919;38.160;-122.260;2022-07-03T03:01:30;7.13;;;1.42;;
54005;SDS011;39919;38.160;-122.260;2022-07-03T03:04:07;5.82;;;1.08;;
54005;SDS011;39919;38.160;-122.260;2022-07-03T03:06:42;4.13;;;1.20;;
54005;SDS011;39919;38.160;-122.260;2022-07-03T03:09:18;2.90;;;0.90;;
54005;SDS011;39919;38.160;-122.260;2022-07-03T03:11:54;8.07;;;1.42;;
54005;SDS011;39919;38.160;-122.260;2022-07-03T03:14:30;2.95;;;1.30;;
54005;SDS011;39919;38.160;-122.260;2022-07-03T03:17:07;6.47;;;1.50;;
54005;SDS011;39919;38.160;-122.260;2022-07-03T03:19:40;6.97;;;2.50;;
54005;SDS011;39919;38.160;-122.260;2022-07-03T03:22:16;8.15;;;1.80;;
54005;SDS011;39919;38.160;-122.260;2022-07-03T03:24:53;4.55;;;1.23;;
54005;SDS011;39919;38.160;-122.260;2022-07-03T03:27:22;5.43;;;0.98;;
54005;SDS011;39919;38.160;-122.260;2022-07-03T03:29:53;9.55;;;1.77;;
54005;SDS011;39919;38.160;-122.260;2022-07-03T03:32:22;5.63;;;1.48;;
54005;SDS011;39919;38.160;-122.260;2022-07-03T03:34:53;4.22;;;1.23;;
54005;SDS011;39919;38.160;-122.260;2022-07-03T03:37:22;6.70;;;1.60;;
54005;SDS011;39919;38.160;-122.260;2022-07-03T03:39:51;5.18;;;1.60;;
54005;SDS011;39919;38.160;-122.260;2022-07-03T03:42:20;11.82;;;2.47;;
54005;SDS011;39919;38.160;-122.260;2022-07-03T03:44:49;5.45;;;1.02;;
54005;SDS011;39919;38.160;-122.260;2022-07-03T03:47:20;6.35;;;1.35;;
54005;SDS011;39919;38.160;-122.260;2022-07-03T03:49:49;9.15;;;2.00;;
54005;SDS011;39919;38.160;-122.260;2022-07-03T03:52:18;6.00;;;1.20;;
54005;SDS011;39919;38.160;-122.260;2022-07-03T03:54:47;4.47;;;1.20;;
54005;SDS011;39919;38.160;-122.260;2022-07-03T03:57:17;6.97;;;1.38;;
54005;SDS011;39919;38.160;-122.260;2022-07-03T03:59:48;4.13;;;1.27;;
54005;SDS011;39919;38.160;-122.260;2022-07-03T04:02:18;4.80;;;1.08;;
54005;SDS011;39919;38.160;-122.260;2022-07-03T04:04:50;4.65;;;0.82;;
54005;SDS011;39919;38.160;-122.260;2022-07-03T04:07:19;4.30;;;1.02;;
54005;SDS011;39919;38.160;-122.260;2022-07-03T04:09:49;2.58;;;0.82;;
54005;SDS011;39919;38.160;-122.260;2022-07-03T04:12:18;6.38;;;0.98;;
54005;SDS011;39919;38.160;-122.260;2022-07-03T04:14:46;4.53;;;1.40;;
54005;SDS011;39919;38.160;-122.260;2022-07-03T04:17:15;7.75;;;1.75;;
54005;SDS011;39919;38.160;-122.260;2022-07-03T04:19:46;4.78;;;1.15;;
54005;SDS011;39919;38.160;-122.260;2022-07-03T04:22:15;3.53;;;1.27;;
54005;SDS011;39919;38.160;-122.260;2022-07-03T04:24:44;3.92;;;1.20;;
54005;SDS011;39919;38.160;-122.260;2022-07-03T04:27:13;5.00;;;1.00;;
54005;SDS011;39919;38.160;-122.260;2022-07-03T04:29:42;5.47;;;1.23;;
54005;SDS011;39919;38.160;-122.260;2022-07-03T04:32:11;4.07;;;1.10;;
54005;SDS011;39919;38.160;-122.260;2022-07-03T04:34:40;5.75;;;1.35;;
54005;SDS011;39919;38.160;-122.260;2022-07-03T04:37:11;3.10;;;1.33;;
54005;SDS011;39919;38.160;-122.260;2022-07-03T04:39:40;6.10;;;1.38;;
54005;SDS011;39919;38.160;-122.260;2022-07-03T04:42:09;4.82;;;1.00;;
54005;SDS011;39919;38.160;-122.260;2022-07-03T04:44:38;2.75;;;0.82;;
54005;SDS011;39919;38.160;-122.260;2022-07-03T04:47:07;5.65;;;1.25;;
54005;SDS011;39919;38.160;-122.260;2022-07-03T04:49:36;5.68;;;0.90;;
54005;SDS011;39919;38.160;-122.260;2022-07-03T04:52:05;2.65;;;0.60;;
54005;SDS011;39919;38.160;-122.260;2022-07-03T04:54:36;5.35;;;1.23;;
54005;SDS011;39919;38.160;-122.260;2022-07-03T04:57:05;3.08;;;0.60;;
54005;SDS011;39919;38.160;-122.260;2022-07-03T04:59:34;2.53;;;0.70;;
54005;SDS011;39919;38.160;-122.260;2022-07-03T05:02:04;7.07;;;2.00;;
54005;SDS011;39919;38.160;-122.260;2022-07-03T05:04:34;3.58;;;1.00;;
54005;SDS011;39919;38.160;-122.260;2022-07-03T05:07:03;4.40;;;0.90;;
54005;SDS011;39919;38.160;-122.260;2022-07-03T05:09:32;4.80;;;1.00;;
54005;SDS011;39919;38.160;-122.260;2022-07-03T05:12:06;3.95;;;0.63;;
54005;SDS011;39919;38.160;-122.260;2022-07-03T05:14:37;4.43;;;0.70;;
54005;SDS011;39919;38.160;-122.260;2022-07-03T05:17:06;1.30;;;0.60;;
54005;SDS011;39919;38.160;-122.260;2022-07-03T05:19:36;2.20;;;0.40;;
54005;SDS011;39919;38.160;-122.260;2022-07-03T05:22:06;2.33;;;0.73;;
54005;SDS011;39919;38.160;-122.260;2022-07-03T05:24:35;1.00;;;0.47;;
54005;SDS011;39919;38.160;-122.260;2022-07-03T05:27:02;3.70;;;1.15;;
54005;SDS011;39919;38.160;-122.260;2022-07-03T05:29:34;5.43;;;1.02;;
54005;SDS011;39919;38.160;-122.260;2022-07-03T05:32:05;4.13;;;0.82;;
54005;SDS011;39919;38.160;-122.260;2022-07-03T05:34:34;0.98;;;0.40;;
54005;SDS011;39919;38.160;-122.260;2022-07-03T05:37:03;3.03;;;0.90;;
54005;SDS011;39919;38.160;-122.260;2022-07-03T05:39:33;6.38;;;0.57;;
54005;SDS011;39919;38.160;-122.260;2022-07-03T05:42:06;4.05;;;0.60;;
54005;SDS011;39919;38.160;-122.260;2022-07-03T05:44:37;1.42;;;0.57;;
54005;SDS011;39919;38.160;-122.260;2022-07-03T05:47:07;4.13;;;0.60;;
54005;SDS011;39919;38.160;-122.260;2022-07-03T05:49:36;1.45;;;0.38;;
54005;SDS011;39919;38.160;-122.260;2022-07-03T05:52:07;2.70;;;0.40;;
54005;SDS011;39919;38.160;-122.260;2022-07-03T05:54:37;2.13;;;0.50;;
54005;SDS011;39919;38.160;-122.260;2022-07-03T05:57:08;4.80;;;0.80;;
54005;SDS011;39919;38.160;-122.260;2022-07-03T05:59:38;3.30;;;0.47;;
54005;SDS011;39919;38.160;-122.260;2022-07-03T06:02:09;1.98;;;0.50;;
54005;SDS011;39919;38.160;-122.260;2022-07-03T06:04:40;1.88;;;0.57;;
54005;SDS011;39919;38.160;-122.260;2022-07-03T06:07:11;3.22;;;0.40;;
54005;SDS011;39919;38.160;-122.260;2022-07-03T06:09:42;2.88;;;0.45;;
54005;SDS011;39919;38.160;-122.260;2022-07-03T06:12:16;1.48;;;0.40;;
54005;SDS011;39919;38.160;-122.260;2022-07-03T06:14:49;4.57;;;1.02;;
54005;SDS011;39919;38.160;-122.260;2022-07-03T06:17:18;2.05;;;0.60;;
54005;SDS011;39919;38.160;-122.260;2022-07-03T06:19:48;3.63;;;0.70;;
54005;SDS011;39919;38.160;-122.260;2022-07-03T06:22:17;6.25;;;0.50;;
54005;SDS011;39919;38.160;-122.260;2022-07-03T06:24:46;5.75;;;0.88;;
54005;SDS011;39919;38.160;-122.260;2022-07-03T06:27:17;3.63;;;0.55;;
54005;SDS011;39919;38.160;-122.260;2022-07-03T06:29:47;4.75;;;0.60;;
54005;SDS011;39919;38.160;-122.260;2022-07-03T06:32:17;3.25;;;0.45;;
54005;SDS011;39919;38.160;-122.260;2022-07-03T06:34:46;4.60;;;0.60;;
54005;SDS011;39919;38.160;-122.260;2022-07-03T06:37:16;1.63;;;0.50;;
54005;SDS011;39919;38.160;-122.260;2022-07-03T06:39:48;1.92;;;0.40;;
54005;SDS011;39919;38.160;-122.260;2022-07-03T06:42:19;2.85;;;0.50;;
54005;SDS011;39919;38.160;-122.260;2022-07-03T06:44:50;4.15;;;0.40;;
54005;SDS011;39919;38.160;-122.260;2022-07-03T06:47:20;3.92;;;0.93;;
54005;SDS011;39919;38.160;-122.260;2022-07-03T06:49:49;1.13;;;0.55;;
54005;SDS011;39919;38.160;-122.260;2022-07-03T06:52:22;4.45;;;0.90;;
54005;SDS011;39919;38.160;-122.260;2022-07-03T06:54:52;3.22;;;0.57;;
54005;SDS011;39919;38.160;-122.260;2022-07-03T06:57:22;3.38;;;0.60;;
54005;SDS011;39919;38.160;-122.260;2022-07-03T06:59:51;3.08;;;0.45;;
54005;SDS011;39919;38.160;-122.260;2022-07-03T07:02:21;2.05;;;0.40;;
54005;SDS011;39919;38.160;-122.260;2022-07-03T07:04:51;3.38;;;0.95;;
54005;SDS011;39919;38.160;-122.260;2022-07-03T07:07:20;1.95;;;0.50;;
54005;SDS011;39919;38.160;-122.260;2022-07-03T07:09:49;3.47;;;0.50;;
54005;SDS011;39919;38.160;-122.260;2022-07-03T07:12:19;3.33;;;0.95;;
54005;SDS011;39919;38.160;-122.260;2022-07-03T07:14:50;1.02;;;0.38;;
54005;SDS011;39919;38.160;-122.260;2022-07-03T07:17:21;2.92;;;0.50;;
54005;SDS011;39919;38.160;-122.260;2022-07-03T07:19:54;2.95;;;0.50;;
54005;SDS011;39919;38.160;-122.260;2022-07-03T07:22:26;4.20;;;0.30;;
54005;SDS011;39919;38.160;-122.260;2022-07-03T07:24:56;3.08;;;0.40;;
54005;SDS011;39919;38.160;-122.260;2022-07-03T07:27:26;2.95;;;0.50;;
54005;SDS011;39919;38.160;-122.260;2022-07-03T07:29:57;4.35;;;0.50;;
54005;SDS011;39919;38.160;-122.260;2022-07-03T07:32:34;3.67;;;0.43;;
54005;SDS011;39919;38.160;-122.260;2022-07-03T07:35:04;1.65;;;0.38;;
54005;SDS011;39919;38.160;-122.260;2022-07-03T07:37:34;3.13;;;0.40;;
54005;SDS011;39919;38.160;-122.260;2022-07-03T07:40:04;4.07;;;0.50;;
54005;SDS011;39919;38.160;-122.260;2022-07-03T07:42:34;2.05;;;0.30;;
54005;SDS011;39919;38.160;-122.260;2022-07-03T07:45:08;2.25;;;0.30;;
54005;SDS011;39919;38.160;-122.260;2022-07-03T07:47:37;2.85;;;0.43;;
54005;SDS011;39919;38.160;-122.260;2022-07-03T07:50:09;3.33;;;0.20;;
54005;SDS011;39919;38.160;-122.260;2022-07-03T07:52:38;0.55;;;0.15;;
54005;SDS011;39919;38.160;-122.260;2022-07-03T07:55:08;1.30;;;0.22;;
54005;SDS011;39919;38.160;-122.260;2022-07-03T07:57:39;1.38;;;0.30;;
54005;SDS011;39919;38.160;-122.260;2022-07-03T08:00:15;1.95;;;0.20;;
54005;SDS011;39919;38.160;-122.260;2022-07-03T08:05:47;3.25;;;0.30;;
54005;SDS011;39919;38.160;-122.260;2022-07-03T08:08:17;1.20;;;0.20;;
54005;SDS011;39919;38.160;-122.260;2022-07-03T08:10:46;0.80;;;0.20;;
54005;SDS011;39919;38.160;-122.260;2022-07-03T08:13:16;1.02;;;0.40;;
54005;SDS011;39919;38.160;-122.260;2022-07-03T08:15:49;1.95;;;0.20;;
54005;SDS011;39919;38.160;-122.260;2022-07-03T08:18:19;0.65;;;0.20;;
54005;SDS011;39919;38.160;-122.260;2022-07-03T08:20:48;0.57;;;0.15;;
54005;SDS011;39919;38.160;-122.260;2022-07-03T08:25:46;1.83;;;0.30;;
54005;SDS011;39919;38.160;-122.260;2022-07-03T08:28:15;1.00;;;0.20;;
54005;SDS011;39919;38.160;-122.260;2022-07-03T08:30:45;1.08;;;0.20;;
54005;SDS011;39919;38.160;-122.260;2022-07-03T08:33:16;3.60;;;0.82;;
54005;SDS011;39919;38.160;-122.260;2022-07-03T08:35:45;1.08;;;0.40;;
54005;SDS011;39919;38.160;-122.260;2022-07-03T08:38:14;1.25;;;0.25;;
54005;SDS011;39919;38.160;-122.260;2022-07-03T08:40:43;1.58;;;0.35;;
54005;SDS011;39919;38.160;-122.260;2022-07-03T08:43:15;0.95;;;0.22;;
54005;SDS011;39919;38.160;-122.260;2022-07-03T08:45:45;2.38;;;0.40;;
54005;SDS011;39919;38.160;-122.260;2022-07-03T08:48:20;1.67;;;0.50;;
54005;SDS011;39919;38.160;-122.260;2022-07-03T08:50:51;2.88;;;0.73;;
54005;SDS011;39919;38.160;-122.260;2022-07-03T08:53:21;1.58;;;0.22;;
54005;SDS011;39919;38.160;-122.260;2022-07-03T08:55:52;0.32;;;0.10;;
54005;SDS011;39919;38.160;-122.260;2022-07-03T08:58:22;3.70;;;0.30;;
54005;SDS011;39919;38.160;-122.260;2022-07-03T09:00:51;0.95;;;0.20;;
54005;SDS011;39919;38.160;-122.260;2022-07-03T09:03:24;1.33;;;0.28;;
54005;SDS011;39919;38.160;-122.260;2022-07-03T09:05:54;2.03;;;0.20;;
54005;SDS011;39919;38.160;-122.260;2022-07-03T09:08:26;2.92;;;0.30;;
54005;SDS011;39919;38.160;-122.260;2022-07-03T09:10:57;1.17;;;0.20;;
54005;SDS011;39919;38.160;-122.260;2022-07-03T09:13:27;1.52;;;0.20;;
54005;SDS011;39919;38.160;-122.260;2022-07-03T09:15:58;1.00;;;0.20;;
54005;SDS011;39919;38.160;-122.260;2022-07-03T09:18:40;2.53;;;0.20;;
54005;SDS011;39919;38.160;-122.260;2022-07-03T09:21:11;1.95;;;0.35;;
54005;SDS011;39919;38.160;-122.260;2022-07-03T09:23:42;0.20;;;0.10;;
54005;SDS011;39919;38.160;-122.260;2022-07-03T09:26:13;4.78;;;0.30;;
54005;SDS011;39919;38.160;-122.260;2022-07-03T09:28:47;0.95;;;0.20;;
54005;SDS011;39919;38.160;-122.260;2022-07-03T09:31:18;1.95;;;0.28;;
54005;SDS011;39919;38.160;-122.260;2022-07-03T09:33:55;2.22;;;0.28;;
54005;SDS011;39919;38.160;-122.260;2022-07-03T09:36:40;4.25;;;0.52;;
54005;SDS011;39919;38.160;-122.260;2022-07-03T09:39:15;1.15;;;0.20;;
54005;SDS011;39919;38.160;-122.260;2022-07-03T09:41:56;4.57;;;0.32;;
54005;SDS011;39919;38.160;-122.260;2022-07-03T09:44:33;3.72;;;0.30;;
54005;SDS011;39919;38.160;-122.260;2022-07-03T09:47:08;3.03;;;0.82;;
54005;SDS011;39919;38.160;-122.260;2022-07-03T09:49:51;1.85;;;0.15;;
54005;SDS011;39919;38.160;-122.260;2022-07-03T09:52:33;1.90;;;0.20;;
54005;SDS011;39919;38.160;-122.260;2022-07-03T09:55:12;2.13;;;0.40;;
54005;SDS011;39919;38.160;-122.260;2022-07-03T10:00:20;0.93;;;0.20;;
54005;SDS011;39919;38.160;-122.260;2022-07-03T10:02:53;3.78;;;0.68;;
54005;SDS011;39919;38.160;-122.260;2022-07-03T10:05:27;0.93;;;0.30;;
54005;SDS011;39919;38.160;-122.260;2022-07-03T10:07:58;2.63;;;0.30;;
54005;SDS011;39919;38.160;-122.260;2022-07-03T10:10:33;0.52;;;0.20;;
54005;SDS011;39919;38.160;-122.260;2022-07-03T10:13:04;1.52;;;0.30;;
54005;SDS011;39919;38.160;-122.260;2022-07-03T10:15:35;2.88;;;0.20;;
54005;SDS011;39919;38.160;-122.260;2022-07-03T10:18:05;1.25;;;0.30;;
54005;SDS011;39919;38.160;-122.260;2022-07-03T10:20:40;0.98;;;0.20;;
54005;SDS011;39919;38.160;-122.260;2022-07-03T10:23:15;2.67;;;0.20;;
54005;SDS011;39919;38.160;-122.260;2022-07-03T10:25:47;2.00;;;0.28;;
54005;SDS011;39919;38.160;-122.260;2022-07-03T10:28:17;1.75;;;0.30;;
54005;SDS011;39919;38.160;-122.260;2022-07-03T10:30:47;1.95;;;0.30;;
54005;SDS011;39919;38.160;-122.260;2022-07-03T10:33:17;2.40;;;0.20;;
54005;SDS011;39919;38.160;-122.260;2022-07-03T10:35:50;0.32;;;0.10;;
54005;SDS011;39919;38.160;-122.260;2022-07-03T10:38:25;2.20;;;0.28;;
54005;SDS011;39919;38.160;-122.260;2022-07-03T10:41:06;4.55;;;0.43;;
54005;SDS011;39919;38.160;-122.260;2022-07-03T10:43:58;5.68;;;0.22;;
54005;SDS011;39919;38.160;-122.260;2022-07-03T10:46:44;4.13;;;0.30;;
54005;SDS011;39919;38.160;-122.260;2022-07-03T10:49:14;2.95;;;0.20;;
54005;SDS011;39919;38.160;-122.260;2022-07-03T10:51:57;2.13;;;0.20;;
54005;SDS011;39919;38.160;-122.260;2022-07-03T10:54:28;2.67;;;0.40;;
54005;SDS011;39919;38.160;-122.260;2022-07-03T10:57:09;1.35;;;0.20;;
54005;SDS011;39919;38.160;-122.260;2022-07-03T11:02:48;2.88;;;0.20;;
54005;SDS011;39919;38.160;-122.260;2022-07-03T11:05:25;1.38;;;0.10;;
54005;SDS011;39919;38.160;-122.260;2022-07-03T11:08:06;2.65;;;0.20;;
54005;SDS011;39919;38.160;-122.260;2022-07-03T11:10:37;2.28;;;0.50;;
54005;SDS011;39919;38.160;-122.260;2022-07-03T11:13:33;5.53;;;0.20;;
54005;SDS011;39919;38.160;-122.260;2022-07-03T11:16:04;3.13;;;0.30;;
54005;SDS011;39919;38.160;-122.260;2022-07-03T11:18:56;1.45;;;0.20;;
54005;SDS011;39919;38.160;-122.260;2022-07-03T11:21:30;2.03;;;0.57;;
54005;SDS011;39919;38.160;-122.260;2022-07-03T11:24:17;3.50;;;0.50;;
54005;SDS011;39919;38.160;-122.260;2022-07-03T11:29:35;3.17;;;0.30;;
54005;SDS011;39919;38.160;-122.260;2022-07-03T11:34:47;4.22;;;0.50;;
54005;SDS011;39919;38.160;-122.260;2022-07-03T11:37:19;3.53;;;0.30;;
54005;SDS011;39919;38.160;-122.260;2022-07-03T11:39:51;2.15;;;0.30;;
54005;SDS011;39919;38.160;-122.260;2022-07-03T11:42:26;1.58;;;0.75;;
54005;SDS011;39919;38.160;-122.260;2022-07-03T11:45:03;2.15;;;0.20;;
54005;SDS011;39919;38.160;-122.260;2022-07-03T11:47:35;3.42;;;0.50;;
54005;SDS011;39919;38.160;-122.260;2022-07-03T11:50:07;1.38;;;0.10;;
54005;SDS011;39919;38.160;-122.260;2022-07-03T11:52:37;2.33;;;0.20;;
54005;SDS011;39919;38.160;-122.260;2022-07-03T11:55:08;3.10;;;0.30;;
54005;SDS011;39919;38.160;-122.260;2022-07-03T11:57:39;0.52;;;0.22;;
54005;SDS011;39919;38.160;-122.260;2022-07-03T12:00:20;1.00;;;0.20;;
54005;SDS011;39919;38.160;-122.260;2022-07-03T12:02:49;0.93;;;0.20;;
54005;SDS011;39919;38.160;-122.260;2022-07-03T12:05:21;1.45;;;0.40;;
54005;SDS011;39919;38.160;-122.260;2022-07-03T12:08:01;1.27;;;0.20;;
54005;SDS011;39919;38.160;-122.260;2022-07-03T12:10:41;1.70;;;0.20;;
54005;SDS011;39919;38.160;-122.260;2022-07-03T12:13:20;1.23;;;0.20;;
54005;SDS011;39919;38.160;-122.260;2022-07-03T12:15:50;2.47;;;0.47;;
54005;SDS011;39919;38.160;-122.260;2022-07-03T12:18:20;1.75;;;0.20;;
54005;SDS011;39919;38.160;-122.260;2022-07-03T12:20:51;2.28;;;0.20;;
54005;SDS011;39919;38.160;-122.260;2022-07-03T12:23:22;1.17;;;0.28;;
54005;SDS011;39919;38.160;-122.260;2022-07-03T12:25:54;0.85;;;0.20;;
54005;SDS011;39919;38.160;-122.260;2022-07-03T12:28:25;3.67;;;0.65;;
54005;SDS011;39919;38.160;-122.260;2022-07-03T12:30:55;2.60;;;0.20;;
54005;SDS011;39919;38.160;-122.260;2022-07-03T12:33:25;1.25;;;0.30;;
54005;SDS011;39919;38.160;-122.260;2022-07-03T12:36:04;1.17;;;0.30;;
54005;SDS011;39919;38.160;-122.260;2022-07-03T12:38:36;0.40;;;0.20;;
54005;SDS011;39919;38.160;-122.260;2022-07-03T12:41:09;0.82;;;0.60;;
54005;SDS011;39919;38.160;-122.260;2022-07-03T12:43:39;1.13;;;0.20;;
54005;SDS011;39919;38.160;-122.260;2022-07-03T12:46:17;2.05;;;0.38;;
54005;SDS011;39919;38.160;-122.260;2022-07-03T12:48:48;3.40;;;0.40;;
54005;SDS011;39919;38.160;-122.260;2022-07-03T12:54:08;2.00;;;0.32;;
54005;SDS011;39919;38.160;-122.260;2022-07-03T12:56:39;1.75;;;0.30;;
54005;SDS011;39919;38.160;-122.260;2022-07-03T12:59:25;1.50;;;0.20;;
54005;SDS011;39919;38.160;-122.260;2022-07-03T13:02:00;1.40;;;0.30;;
54005;SDS011;39919;38.160;-122.260;2022-07-03T13:04:34;1.98;;;0.52;;
54005;SDS011;39919;38.160;-122.260;2022-07-03T13:07:05;2.38;;;0.30;;
54005;SDS011;39919;38.160;-122.260;2022-07-03T13:09:36;1.75;;;0.30;;
54005;SDS011;39919;38.160;-122.260;2022-07-03T13:12:10;1.30;;;0.45;;
54005;SDS011;39919;38.160;-122.260;2022-07-03T13:14:57;1.67;;;0.25;;
54005;SDS011;39919;38.160;-122.260;2022-07-03T13:22:27;1.85;;;0.40;;
54005;SDS011;39919;38.160;-122.260;2022-07-03T13:24:56;1.80;;;0.30;;
54005;SDS011;39919;38.160;-122.260;2022-07-03T13:27:27;0.60;;;0.20;;
54005;SDS011;39919;38.160;-122.260;2022-07-03T13:29:57;0.88;;;0.30;;
54005;SDS011;39919;38.160;-122.260;2022-07-03T13:32:26;1.98;;;0.30;;
54005;SDS011;39919;38.160;-122.260;2022-07-03T13:34:55;0.43;;;0.20;;
54005;SDS011;39919;38.160;-122.260;2022-07-03T13:37:25;1.65;;;0.30;;
54005;SDS011;39919;38.160;-122.260;2022-07-03T13:39:55;2.10;;;0.40;;
54005;SDS011;39919;38.160;-122.260;2022-07-03T13:42:24;0.73;;;0.30;;
54005;SDS011;39919;38.160;-122.260;2022-07-03T13:44:57;1.35;;;0.60;;
54005;SDS011;39919;38.160;-122.260;2022-07-03T13:47:26;1.27;;;0.20;;
54005;SDS011;39919;38.160;-122.260;2022-07-03T13:49:56;1.38;;;0.30;;
54005;SDS011;39919;38.160;-122.260;2022-07-03T13:52:25;1.33;;;0.50;;
54005;SDS011;39919;38.160;-122.260;2022-07-03T13:54:54;3.00;;;0.28;;
54005;SDS011;39919;38.160;-122.260;2022-07-03T13:57:24;2.92;;;0.30;;
54005;SDS011;39919;38.160;-122.260;2022-07-03T13:59:55;2.15;;;0.30;;
54005;SDS011;39919;38.160;-122.260;2022-07-03T14:02:26;1.38;;;0.77;;
54005;SDS011;39919;38.160;-122.260;2022-07-03T14:07:20;1.38;;;0.30;;
54005;SDS011;39919;38.160;-122.260;2022-07-03T14:09:50;0.93;;;0.55;;
54005;SDS011;39919;38.160;-122.260;2022-07-03T14:12:19;0.93;;;0.30;;
54005;SDS011;39919;38.160;-122.260;2022-07-03T14:14:49;0.68;;;0.20;;
54005;SDS011;39919;38.160;-122.260;2022-07-03T14:17:20;2.03;;;0.47;;
54005;SDS011;39919;38.160;-122.260;2022-07-03T14:19:52;0.75;;;0.30;;
54005;SDS011;39919;38.160;-122.260;2022-07-03T14:22:22;1.73;;;0.50;;
54005;SDS011;39919;38.160;-122.260;2022-07-03T14:24:52;1.20;;;0.40;;
54005;SDS011;39919;38.160;-122.260;2022-07-03T14:27:21;1.30;;;0.40;;
54005;SDS011;39919;38.160;-122.260;2022-07-03T14:30:07;3.10;;;0.63;;
54005;SDS011;39919;38.160;-122.260;2022-07-03T14:32:56;1.30;;;0.40;;
54005;SDS011;39919;38.160;-122.260;2022-07-03T14:35:26;2.35;;;0.30;;
54005;SDS011;39919;38.160;-122.260;2022-07-03T14:37:56;1.08;;;0.30;;
54005;SDS011;39919;38.160;-122.260;2022-07-03T14:40:24;1.25;;;0.50;;
54005;SDS011;39919;38.160;-122.260;2022-07-03T14:42:53;1.30;;;0.50;;
54005;SDS011;39919;38.160;-122.260;2022-07-03T14:45:22;1.95;;;0.50;;
54005;SDS011;39919;38.160;-122.260;2022-07-03T14:47:52;2.70;;;0.40;;
54005;SDS011;39919;38.160;-122.260;2022-07-03T14:50:26;1.02;;;0.40;;
54005;SDS011;39919;38.160;-122.260;2022-07-03T14:52:56;0.60;;;0.50;;
54005;SDS011;39919;38.160;-122.260;2022-07-03T14:55:28;0.40;;;0.20;;
54005;SDS011;39919;38.160;-122.260;2022-07-03T14:58:04;1.13;;;0.40;;
54005;SDS011;39919;38.160;-122.260;2022-07-03T15:00:41;0.85;;;0.25;;
54005;SDS011;39919;38.160;-122.260;2022-07-03T15:03:19;0.75;;;0.30;;
54005;SDS011;39919;38.160;-122.260;2022-07-03T15:05:56;0.95;;;0.35;;
54005;SDS011;39919;38.160;-122.260;2022-07-03T15:11:21;1.27;;;0.43;;